Time;durP1;ratioP1;P1;durP2;ratioP2;P2;SDS_P1;SDS_P2;PMS_P1;PMS_P2;Temp;Humidity;BMP_temperature;BMP_pressure;BME280_temperature;BME280_humidity;BME280_pressure;Samples;Min_cycle;Max_cycle;Signal;HPM_P1;HPM_P2
2022/03/25 00:00:32;;;;;;;300.08;56.67;;;4.10;99.90;;;;;;5098544;28;20047;-75
2022/03/25 00:02:58;;;;;;;458.95;75.03;;;4.20;99.90;;;;;;5079992;28;20048;-75
2022/03/25 00:05:24;;;;;;;307.17;60.65;;;4.20;99.90;;;;;;5111883;28;20047;-74
2022/03/25 00:07:49;;;;;;;215.27;70.05;;;4.20;99.90;;;;;;5108575;28;20478;-75
2022/03/25 00:10:15;;;;;;;131.82;61.83;;;4.30;99.90;;;;;;5116543;28;20059;-74
2022/03/25 00:12:41;;;;;;;145.95;63.95;;;4.30;99.90;;;;;;5080090;28;20438;-75
2022/03/25 00:15:07;;;;;;;112.50;62.17;;;4.30;99.90;;;;;;5076030;28;20135;-75
2022/03/25 00:17:33;;;;;;;155.10;67.05;;;4.30;99.90;;;;;;5068236;28;20123;-74
2022/03/25 00:19:59;;;;;;;125.15;61.53;;;4.30;99.90;;;;;;5091306;28;20388;-75
2022/03/25 00:22:25;;;;;;;96.57;55.45;;;4.20;99.90;;;;;;5101802;28;20044;-75
2022/03/25 00:24:51;;;;;;;82.93;49.88;;;4.20;99.90;;;;;;5095175;28;20040;-75
2022/03/25 00:27:17;;;;;;;501.42;66.68;;;4.10;99.90;;;;;;5114708;28;20046;-75
2022/03/25 00:29:44;;;;;;;72.03;46.22;;;4.00;99.90;;;;;;5098466;28;20057;-75
2022/03/25 00:32:09;;;;;;;676.83;78.45;;;3.90;99.90;;;;;;5076022;28;20049;-75
2022/03/25 00:34:35;;;;;;;75.35;43.60;;;3.80;99.90;;;;;;5075536;28;20120;-75
2022/03/25 00:37:02;;;;;;;70.00;45.05;;;3.70;99.90;;;;;;5091203;28;20040;-75
2022/03/25 00:39:28;;;;;;;140.57;45.70;;;3.60;99.90;;;;;;5091253;28;20060;-75
2022/03/25 00:41:53;;;;;;;60.75;43.25;;;3.50;99.90;;;;;;5095720;28;20042;-75
2022/03/25 00:44:19;;;;;;;70.60;45.70;;;3.40;99.90;;;;;;5106924;28;20070;-75
2022/03/25 00:46:45;;;;;;;80.40;50.90;;;3.30;99.90;;;;;;5096945;28;20058;-75
2022/03/25 00:49:11;;;;;;;87.18;49.67;;;3.20;99.90;;;;;;5086689;28;20052;-75
2022/03/25 00:51:37;;;;;;;69.07;43.80;;;3.20;99.90;;;;;;5095527;28;20082;-75
2022/03/25 00:54:03;;;;;;;126.28;59.60;;;3.20;99.90;;;;;;5102560;28;20043;-75
2022/03/25 00:56:29;;;;;;;127.72;61.20;;;3.10;99.90;;;;;;5097897;28;20475;-75
2022/03/25 00:58:55;;;;;;;91.47;53.10;;;3.20;99.90;;;;;;5096812;28;20442;-75
2022/03/25 01:01:20;;;;;;;112.10;58.60;;;3.30;99.90;;;;;;5096794;28;20036;-75
2022/03/25 01:03:46;;;;;;;77.45;41.80;;;3.30;99.90;;;;;;5097039;28;20043;-75
2022/03/25 01:06:12;;;;;;;56.97;40.67;;;3.20;99.90;;;;;;5097398;28;20035;-75
2022/03/25 01:08:38;;;;;;;61.47;42.65;;;3.20;99.90;;;;;;5096314;28;20061;-75
2022/03/25 01:11:04;;;;;;;537.38;69.07;;;3.10;99.90;;;;;;5096531;28;20100;-75
2022/03/25 01:13:33;;;;;;;146.50;43.17;;;3.10;99.90;;;;;;5096857;28;20047;-75
2022/03/25 01:16:04;;;;;;;72.65;41.50;;;3.00;99.90;;;;;;5096612;28;20044;-75
2022/03/25 01:18:30;;;;;;;64.97;41.35;;;2.90;99.90;;;;;;5096780;28;20050;-75
2022/03/25 01:20:57;;;;;;;242.55;49.20;;;2.80;99.90;;;;;;5113980;28;20048;-75
2022/03/25 01:23:23;;;;;;;103.45;43.65;;;2.80;99.90;;;;;;5096864;28;20483;-75
2022/03/25 01:25:49;;;;;;;54.65;38.50;;;2.70;99.90;;;;;;5097081;28;20127;-75
2022/03/25 01:28:15;;;;;;;50.60;35.97;;;2.60;99.90;;;;;;5095916;28;20695;-75
2022/03/25 01:30:42;;;;;;;54.97;37.85;;;2.50;99.90;;;;;;5097069;28;20097;-75
2022/03/25 01:33:08;;;;;;;53.53;36.25;;;2.50;99.90;;;;;;5115065;28;20101;-75
2022/03/25 01:35:33;;;;;;;128.13;43.00;;;2.50;99.90;;;;;;5113959;28;20043;-75
2022/03/25 01:38:00;;;;;;;66.20;40.30;;;2.40;99.90;;;;;;5114367;28;20054;-75
2022/03/25 01:40:26;;;;;;;60.97;39.38;;;2.40;99.90;;;;;;5096870;28;20083;-75
2022/03/25 01:42:51;;;;;;;58.22;37.65;;;2.40;99.90;;;;;;5113739;28;20078;-75
2022/03/25 01:45:32;;;;;;;59.08;35.85;;;2.30;99.90;;;;;;5079480;28;20104;-75
2022/03/25 01:47:59;;;;;;;48.45;34.42;;;2.30;99.90;;;;;;5079513;28;20052;-75
2022/03/25 01:50:25;;;;;;;108.10;38.75;;;2.20;99.90;;;;;;5095693;28;20051;-75
2022/03/25 01:52:52;;;;;;;123.57;35.60;;;2.20;99.90;;;;;;5092745;28;20139;-75
2022/03/25 01:55:27;;;;;;;111.30;34.80;;;2.10;99.90;;;;;;5076339;28;20040;-75
2022/03/25 01:57:57;;;;;;;341.48;45.20;;;2.10;99.90;;;;;;5075510;28;20094;-75
2022/03/25 02:00:24;;;;;;;299.33;40.80;;;2.00;99.90;;;;;;5082721;28;20048;-75
2022/03/25 02:02:51;;;;;;;577.65;60.65;;;1.90;99.90;;;;;;5096007;28;20518;-75
2022/03/25 02:05:18;;;;;;;149.95;33.08;;;1.80;99.90;;;;;;5078708;28;20096;-75
2022/03/25 02:07:45;;;;;;;312.92;39.53;;;1.80;99.90;;;;;;5096123;28;20180;-75
2022/03/25 02:10:11;;;;;;;176.00;36.30;;;1.70;99.90;;;;;;5092684;28;20115;-75
2022/03/25 02:12:38;;;;;;;691.50;72.95;;;1.70;99.90;;;;;;5114069;28;20035;-74
2022/03/25 02:15:05;;;;;;;314.83;49.83;;;1.60;99.90;;;;;;5095702;28;20052;-75
2022/03/25 02:17:32;;;;;;;83.20;33.63;;;1.60;99.90;;;;;;5095187;28;20051;-75
2022/03/25 02:19:57;;;;;;;48.63;32.10;;;1.50;99.90;;;;;;5092469;28;20039;-75
2022/03/25 02:22:24;;;;;;;38.92;30.73;;;1.50;99.90;;;;;;5075700;28;20399;-75
2022/03/25 02:24:50;;;;;;;37.45;29.45;;;1.50;99.90;;;;;;5102107;28;20123;-75
2022/03/25 02:27:18;;;;;;;43.97;30.50;;;1.40;99.90;;;;;;5114168;28;20093;-75
2022/03/25 02:29:44;;;;;;;54.20;30.02;;;1.40;99.90;;;;;;5092025;28;20047;-75
2022/03/25 02:32:10;;;;;;;45.80;30.02;;;1.40;99.90;;;;;;5075571;28;20586;-75
2022/03/25 02:34:37;;;;;;;41.63;28.40;;;1.30;99.90;;;;;;5095327;28;20115;-75
2022/03/25 02:37:04;;;;;;;38.80;28.85;;;1.30;99.90;;;;;;5095853;28;20079;-75
2022/03/25 02:39:30;;;;;;;39.40;30.75;;;1.20;99.90;;;;;;5113025;28;20514;-75
2022/03/25 02:41:57;;;;;;;98.50;30.40;;;1.20;99.90;;;;;;5079183;28;20151;-75
2022/03/25 02:44:23;;;;;;;37.08;27.83;;;1.10;99.90;;;;;;5113359;28;20039;-75
2022/03/25 02:46:48;;;;;;;32.92;26.27;;;1.10;99.90;;;;;;5095078;28;20044;-75
2022/03/25 02:49:14;;;;;;;39.50;28.08;;;1.10;99.90;;;;;;5095119;28;20066;-75
2022/03/25 02:51:40;;;;;;;44.85;29.77;;;1.00;99.90;;;;;;5113452;28;20044;-75
2022/03/25 02:54:06;;;;;;;33.60;26.25;;;1.00;99.90;;;;;;5113216;28;20043;-75
2022/03/25 02:56:32;;;;;;;35.22;26.88;;;1.00;99.90;;;;;;5095595;28;20066;-75
2022/03/25 02:58:59;;;;;;;41.38;30.02;;;0.90;99.90;;;;;;5113159;28;20047;-75
2022/03/25 03:01:25;;;;;;;36.40;28.65;;;0.90;99.90;;;;;;5112891;28;20043;-75
2022/03/25 03:03:53;;;;;;;39.03;30.15;;;0.90;99.90;;;;;;5095646;28;20237;-75
2022/03/25 03:06:19;;;;;;;43.80;30.77;;;0.90;99.90;;;;;;5095499;28;20047;-75
2022/03/25 03:08:45;;;;;;;59.80;29.17;;;0.80;99.90;;;;;;5113047;28;20560;-75
2022/03/25 03:11:11;;;;;;;100.88;29.65;;;0.80;99.90;;;;;;5095681;28;20047;-75
2022/03/25 03:13:38;;;;;;;108.22;30.17;;;0.80;99.90;;;;;;5115477;28;20048;-75
2022/03/25 03:16:04;;;;;;;68.50;27.40;;;0.70;99.90;;;;;;5099687;28;20036;-75
2022/03/25 03:18:30;;;;;;;89.25;27.23;;;0.70;99.90;;;;;;5117408;28;20507;-75
2022/03/25 03:20:56;;;;;;;47.58;28.33;;;0.60;99.90;;;;;;5098491;28;20050;-75
2022/03/25 03:23:22;;;;;;;35.33;27.55;;;0.60;99.90;;;;;;5099291;28;20043;-75
2022/03/25 03:25:48;;;;;;;58.75;28.63;;;0.60;99.90;;;;;;5099294;28;20487;-75
2022/03/25 03:28:14;;;;;;;39.08;25.95;;;0.60;99.90;;;;;;5116641;28;20044;-75
2022/03/25 03:30:40;;;;;;;85.07;29.08;;;0.50;99.90;;;;;;5117394;28;20442;-75
2022/03/25 03:33:06;;;;;;;62.92;28.40;;;0.50;99.90;;;;;;5116627;28;20103;-75
2022/03/25 03:35:34;;;;;;;53.40;26.02;;;0.50;99.90;;;;;;5098356;28;20051;-75
2022/03/25 03:38:00;;;;;;;52.42;28.67;;;0.50;99.90;;;;;;5098975;28;20525;-75
2022/03/25 03:40:25;;;;;;;39.58;26.75;;;0.50;99.90;;;;;;5117173;28;20047;-75
2022/03/25 03:42:52;;;;;;;62.88;26.25;;;0.40;99.90;;;;;;5116426;28;20046;-75
2022/03/25 03:45:18;;;;;;;110.03;26.13;;;0.40;99.90;;;;;;5117299;28;20093;-75
2022/03/25 03:47:44;;;;;;;50.85;24.77;;;0.40;99.90;;;;;;5116768;28;20063;-75
2022/03/25 03:50:13;;;;;;;37.22;23.55;;;0.40;99.90;;;;;;5098115;28;20051;-75
2022/03/25 03:52:39;;;;;;;51.00;24.38;;;0.40;99.90;;;;;;5116644;28;20040;-75
2022/03/25 03:55:07;;;;;;;30.38;24.58;;;0.40;99.90;;;;;;5082148;28;20134;-75
2022/03/25 03:57:35;;;;;;;172.82;30.90;;;0.40;99.90;;;;;;5116403;28;20040;-75
2022/03/25 04:00:02;;;;;;;43.95;27.52;;;0.40;99.90;;;;;;5116539;28;20470;-75
2022/03/25 04:02:28;;;;;;;311.65;48.78;;;0.50;99.90;;;;;;5116402;28;20043;-75
2022/03/25 04:04:54;;;;;;;61.38;28.45;;;0.40;99.90;;;;;;5116378;28;20039;-75
2022/03/25 04:07:22;;;;;;;38.50;27.10;;;0.40;99.90;;;;;;5094934;28;20048;-75
2022/03/25 04:09:48;;;;;;;35.80;26.38;;;0.40;99.90;;;;;;5077759;28;20093;-75
2022/03/25 04:12:14;;;;;;;32.38;26.52;;;0.50;99.90;;;;;;5076704;28;20048;-75
2022/03/25 04:14:40;;;;;;;32.58;25.15;;;0.50;99.90;;;;;;5116728;28;20051;-75
2022/03/25 04:17:06;;;;;;;35.70;24.35;;;0.50;99.90;;;;;;5097222;28;20078;-75
2022/03/25 04:19:32;;;;;;;97.10;40.40;;;0.50;99.90;;;;;;5098668;28;20101;-75
2022/03/25 04:21:58;;;;;;;46.70;24.67;;;0.50;99.90;;;;;;5116376;28;20043;-75
2022/03/25 04:24:24;;;;;;;120.28;27.70;;;0.50;99.90;;;;;;5097154;28;20040;-75
2022/03/25 04:26:50;;;;;;;95.72;30.90;;;0.50;99.90;;;;;;5097987;28;20040;-74
2022/03/25 04:29:15;;;;;;;134.15;48.72;;;0.80;99.90;;;;;;5097956;28;20052;-74
2022/03/25 04:31:41;;;;;;;165.95;56.17;;;1.10;99.90;;;;;;5094875;28;20047;-74
2022/03/25 04:34:07;;;;;;;93.95;34.35;;;1.40;99.90;;;;;;5097974;28;20047;-74
2022/03/25 04:36:34;;;;;;;38.85;26.17;;;1.60;99.90;;;;;;5080535;28;20068;-74
2022/03/25 04:39:00;;;;;;;39.70;23.58;;;1.50;99.90;;;;;;5097359;28;20051;-75
2022/03/25 04:41:26;;;;;;;90.13;40.05;;;1.30;99.90;;;;;;5116031;28;20475;-74
2022/03/25 04:43:52;;;;;;;77.80;25.58;;;1.20;99.90;;;;;;5094064;28;20505;-75
2022/03/25 04:46:18;;;;;;;122.13;52.75;;;1.20;99.90;;;;;;5095048;28;20075;-74
2022/03/25 04:48:44;;;;;;;40.78;28.15;;;1.50;99.90;;;;;;5114720;28;20065;-74
2022/03/25 04:51:11;;;;;;;41.80;24.92;;;1.60;99.90;;;;;;5115513;28;20056;-75
2022/03/25 04:53:38;;;;;;;58.42;25.90;;;1.50;99.90;;;;;;5114900;28;20070;-75
2022/03/25 04:56:04;;;;;;;41.08;24.17;;;1.30;99.90;;;;;;5116041;28;20106;-75
2022/03/25 04:58:30;;;;;;;241.02;34.53;;;1.10;99.90;;;;;;5115169;28;20047;-75
2022/03/25 05:00:56;;;;;;;77.63;24.90;;;0.90;99.90;;;;;;5114908;28;20034;-75
2022/03/25 05:03:22;;;;;;;39.05;22.88;;;0.80;99.90;;;;;;5115094;28;20398;-75
2022/03/25 05:05:49;;;;;;;32.03;24.60;;;0.70;99.90;;;;;;5115467;28;20089;-75
2022/03/25 05:08:15;;;;;;;34.10;24.98;;;0.60;99.90;;;;;;5114814;28;20044;-75
2022/03/25 05:10:41;;;;;;;30.70;24.05;;;0.60;99.90;;;;;;5094041;28;20056;-75
2022/03/25 05:13:08;;;;;;;57.58;25.23;;;0.50;99.90;;;;;;5076114;28;20101;-75
2022/03/25 05:15:35;;;;;;;46.53;29.88;;;0.50;99.90;;;;;;5114099;28;20395;-75
2022/03/25 05:18:01;;;;;;;58.28;33.22;;;0.40;99.90;;;;;;5115542;28;20035;-75
2022/03/25 05:20:27;;;;;;;38.20;26.63;;;0.70;99.90;;;;;;5092960;28;20391;-75
2022/03/25 05:22:53;;;;;;;68.78;29.42;;;0.70;99.90;;;;;;5076957;28;20040;-75
2022/03/25 05:25:20;;;;;;;30.02;24.10;;;0.70;99.90;;;;;;5092319;28;20043;-75
2022/03/25 05:27:51;;;;;;;30.63;23.40;;;0.70;99.90;;;;;;5096079;28;20039;-75
2022/03/25 05:30:30;;;;;;;30.23;23.17;;;0.60;99.90;;;;;;5096953;28;20466;-75
2022/03/25 05:32:56;;;;;;;30.48;23.48;;;0.50;99.90;;;;;;5096465;28;20534;-75
2022/03/25 05:35:23;;;;;;;32.10;24.58;;;0.50;99.90;;;;;;5095126;28;20043;-75
2022/03/25 05:37:50;;;;;;;31.60;22.50;;;0.40;99.90;;;;;;5079932;28;20097;-75
2022/03/25 05:40:18;;;;;;;31.60;23.98;;;0.40;99.90;;;;;;5096441;28;20386;-75
2022/03/25 05:42:44;;;;;;;31.13;22.15;;;0.40;99.90;;;;;;5095677;28;20036;-75
2022/03/25 05:45:10;;;;;;;39.60;26.38;;;0.40;99.90;;;;;;5096485;28;20180;-75
2022/03/25 05:47:38;;;;;;;41.65;23.70;;;0.40;99.90;;;;;;5096138;28;20043;-75
2022/03/25 05:50:05;;;;;;;39.60;26.67;;;0.40;99.90;;;;;;5114196;28;20051;-75
2022/03/25 05:52:30;;;;;;;46.63;26.55;;;0.40;99.90;;;;;;5114527;28;20126;-75
2022/03/25 05:54:56;;;;;;;36.75;25.38;;;0.50;99.90;;;;;;5114579;28;20173;-75
2022/03/25 05:57:22;;;;;;;47.78;28.23;;;0.50;99.90;;;;;;5095326;28;20046;-75
2022/03/25 05:59:48;;;;;;;43.33;26.60;;;0.50;99.90;;;;;;5114730;28;20035;-75
2022/03/25 06:02:14;;;;;;;50.90;29.33;;;0.50;99.90;;;;;;5095824;28;20039;-75
2022/03/25 06:04:40;;;;;;;48.67;29.98;;;0.70;99.90;;;;;;5114407;28;20039;-75
2022/03/25 06:07:06;;;;;;;49.75;28.60;;;0.70;99.90;;;;;;5114142;28;20040;-75
2022/03/25 06:09:33;;;;;;;77.07;37.75;;;0.80;99.90;;;;;;5113655;28;20411;-75
2022/03/25 06:11:58;;;;;;;140.80;51.25;;;0.90;99.90;;;;;;5114350;28;20027;-75
2022/03/25 06:14:25;;;;;;;145.25;53.83;;;1.20;99.90;;;;;;5096124;28;20211;-75
2022/03/25 06:16:51;;;;;;;196.38;65.80;;;1.60;99.90;;;;;;5113288;28;20043;-75
2022/03/25 06:19:17;;;;;;;73.32;37.80;;;1.80;99.90;;;;;;5075667;28;20083;-75
2022/03/25 06:21:44;;;;;;;71.53;36.75;;;2.00;99.90;;;;;;5093935;28;20067;-75
2022/03/25 06:24:10;;;;;;;90.35;43.50;;;2.00;99.90;;;;;;5112959;28;20057;-75
2022/03/25 06:26:35;;;;;;;71.95;35.83;;;2.00;99.90;;;;;;5114118;28;20040;-75
2022/03/25 06:29:02;;;;;;;101.53;46.95;;;2.00;99.90;;;;;;5090989;28;20044;-75
2022/03/25 06:31:28;;;;;;;113.05;49.55;;;2.10;99.90;;;;;;5094934;28;20049;-74
2022/03/25 06:33:54;;;;;;;89.95;44.08;;;2.40;99.90;;;;;;5110112;28;20127;-75
2022/03/25 06:36:20;;;;;;;67.10;36.38;;;2.60;99.90;;;;;;5092486;28;20048;-75
2022/03/25 06:38:45;;;;;;;93.45;45.47;;;2.60;99.90;;;;;;5103067;28;20421;-76
2022/03/25 06:41:11;;;;;;;70.43;37.30;;;2.60;99.90;;;;;;5094722;28;20054;-75
2022/03/25 06:43:37;;;;;;;75.82;39.75;;;2.80;99.90;;;;;;5078177;28;20047;-75
2022/03/25 06:46:04;;;;;;;66.07;37.83;;;2.90;99.90;;;;;;5094629;28;20086;-75
2022/03/25 06:48:31;;;;;;;71.18;38.78;;;2.90;99.90;;;;;;5114037;28;20526;-75
2022/03/25 06:50:59;;;;;;;80.10;39.88;;;2.90;99.90;;;;;;5095003;28;20411;-75
2022/03/25 06:53:27;;;;;;;67.85;40.20;;;2.90;99.90;;;;;;5078450;28;20091;-74
2022/03/25 06:55:53;;;;;;;75.93;40.10;;;3.00;99.90;;;;;;5095402;28;20050;-75
2022/03/25 06:58:19;;;;;;;77.75;41.15;;;3.10;99.90;;;;;;5092929;28;20070;-74
2022/03/25 07:00:46;;;;;;;82.07;42.25;;;3.10;99.90;;;;;;5095246;28;20047;-74
2022/03/25 07:03:12;;;;;;;97.65;44.80;;;3.30;99.90;;;;;;5113418;28;20039;-74
2022/03/25 07:05:38;;;;;;;95.25;45.83;;;3.40;99.90;;;;;;5108925;28;20040;-74
2022/03/25 07:08:05;;;;;;;105.43;47.55;;;3.70;99.90;;;;;;5085204;28;20043;-74
2022/03/25 07:10:31;;;;;;;77.70;40.05;;;3.90;99.90;;;;;;5095353;28;20047;-74
2022/03/25 07:12:57;;;;;;;87.53;45.80;;;4.20;99.90;;;;;;5094340;28;20055;-74
2022/03/25 07:15:24;;;;;;;82.28;44.60;;;4.50;99.90;;;;;;5095389;28;20051;-74
2022/03/25 07:17:52;;;;;;;63.10;38.05;;;4.70;99.90;;;;;;5112955;28;20043;-74
2022/03/25 07:20:19;;;;;;;61.90;35.72;;;4.80;99.90;;;;;;5112860;28;20101;-74
2022/03/25 07:22:47;;;;;;;62.60;36.05;;;5.00;99.90;;;;;;5111034;28;20043;-75
2022/03/25 07:25:15;;;;;;;60.75;39.13;;;5.20;99.90;;;;;;5112252;28;20047;-74
2022/03/25 07:27:42;;;;;;;59.13;33.67;;;5.40;99.90;;;;;;5094149;28;20036;-74
2022/03/25 07:30:09;;;;;;;54.88;34.10;;;5.50;99.90;;;;;;5112447;28;20047;-74
2022/03/25 07:32:35;;;;;;;56.45;33.92;;;5.70;99.90;;;;;;5111914;28;20105;-74
2022/03/25 07:35:00;;;;;;;53.58;30.95;;;5.80;99.90;;;;;;5094505;28;20039;-74
2022/03/25 07:37:26;;;;;;;50.60;31.60;;;6.00;99.90;;;;;;5113422;28;20078;-74
2022/03/25 07:39:52;;;;;;;51.42;31.52;;;6.10;99.90;;;;;;5113081;28;20054;-74
2022/03/25 07:42:19;;;;;;;44.83;28.73;;;6.20;99.90;;;;;;5094711;28;20044;-74
2022/03/25 07:44:46;;;;;;;52.35;29.80;;;6.30;99.90;;;;;;5113534;28;20079;-74
2022/03/25 07:47:13;;;;;;;45.92;29.83;;;6.40;99.90;;;;;;5113089;28;20044;-74
2022/03/25 07:49:40;;;;;;;42.33;29.02;;;6.50;99.90;;;;;;5112373;28;20060;-74
2022/03/25 07:52:07;;;;;;;41.92;27.40;;;6.60;99.90;;;;;;5095414;28;20051;-74
2022/03/25 07:54:34;;;;;;;42.60;27.90;;;6.70;99.90;;;;;;5095175;28;20101;-74
2022/03/25 07:57:00;;;;;;;42.20;27.63;;;6.80;99.90;;;;;;5077695;28;20100;-74
2022/03/25 07:59:26;;;;;;;40.22;26.02;;;6.90;99.90;;;;;;5116046;28;20044;-74
2022/03/25 08:01:53;;;;;;;46.55;28.23;;;7.00;99.90;;;;;;5098109;28;20040;-74
2022/03/25 08:04:21;;;;;;;43.85;29.23;;;7.20;99.90;;;;;;5117074;28;20126;-74
2022/03/25 08:06:47;;;;;;;42.75;26.75;;;7.30;99.90;;;;;;5098936;28;20441;-74
2022/03/25 08:09:13;;;;;;;43.28;27.67;;;7.40;99.90;;;;;;5116148;28;20093;-74
2022/03/25 08:11:39;;;;;;;37.65;26.15;;;7.50;99.90;;;;;;5098550;28;20079;-74
2022/03/25 08:14:06;;;;;;;36.33;24.23;;;7.60;99.90;;;;;;5116450;28;20418;-74
2022/03/25 08:16:32;;;;;;;38.25;22.40;;;7.80;99.90;;;;;;5098358;28;20394;-74
2022/03/25 08:18:58;;;;;;;38.03;21.67;;;7.90;99.90;;;;;;5081645;28;20070;-74
2022/03/25 08:21:24;;;;;;;38.05;23.35;;;8.00;99.90;;;;;;5116411;28;20482;-74
2022/03/25 08:29:20;;;;;;;35.70;20.47;;;8.40;99.90;;;;;;5098164;28;20433;-74
2022/03/25 08:31:46;;;;;;;36.90;19.83;;;8.50;99.90;;;;;;5097554;28;20559;-74
2022/03/25 08:34:14;;;;;;;30.73;19.77;;;8.60;99.90;;;;;;5098436;28;20391;-74
2022/03/25 08:36:44;;;;;;;32.53;19.33;;;8.60;99.90;;;;;;5097686;28;20105;-74
2022/03/25 08:39:10;;;;;;;35.20;20.33;;;8.70;99.90;;;;;;5115647;28;20395;-73
2022/03/25 08:41:36;;;;;;;37.95;21.23;;;8.70;99.90;;;;;;5116044;28;20046;-73
2022/03/25 08:44:01;;;;;;;33.55;20.42;;;8.70;99.90;;;;;;5115547;28;20039;-73
2022/03/25 08:46:28;;;;;;;30.23;19.15;;;8.80;99.90;;;;;;5097660;28;20051;-73
2022/03/25 08:48:54;;;;;;;30.25;20.60;;;9.00;99.90;;;;;;5116035;28;20479;-73
2022/03/25 08:51:21;;;;;;;27.80;17.38;;;9.10;99.90;;;;;;5097205;28;20055;-74
2022/03/25 08:53:47;;;;;;;35.25;18.92;;;9.30;99.90;;;;;;5097880;28;20142;-73
2022/03/25 08:56:13;;;;;;;28.58;18.05;;;9.40;99.90;;;;;;5115573;28;20407;-73
2022/03/25 08:58:40;;;;;;;39.17;19.58;;;9.50;99.90;;;;;;5115099;28;20043;-74
2022/03/25 09:01:06;;;;;;;28.15;18.08;;;9.60;99.90;;;;;;5115697;28;20048;-73
2022/03/25 09:03:32;;;;;;;32.90;19.98;;;9.70;99.90;;;;;;5115647;28;20046;-74
2022/03/25 09:05:58;;;;;;;31.95;18.42;;;9.80;99.90;;;;;;5115197;28;20106;-74
2022/03/25 09:08:24;;;;;;;28.88;16.85;;;9.90;99.90;;;;;;5115733;28;20047;-74
2022/03/25 09:10:53;;;;;;;24.63;16.13;;;9.90;99.90;;;;;;5115520;28;20047;-74
2022/03/25 09:13:19;;;;;;;28.77;16.52;;;10.00;99.90;;;;;;5097006;28;20048;-74
2022/03/25 09:15:46;;;;;;;28.33;16.83;;;10.00;99.90;;;;;;5097538;28;20044;-73
2022/03/25 09:18:12;;;;;;;27.35;16.33;;;10.10;99.90;;;;;;5115202;28;20051;-73
2022/03/25 09:20:39;;;;;;;25.30;16.88;;;10.20;99.90;;;;;;5096625;28;20390;-73
2022/03/25 09:23:05;;;;;;;35.03;18.08;;;10.30;99.90;;;;;;5097123;28;20040;-74
2022/03/25 09:25:32;;;;;;;28.20;17.58;;;10.40;99.90;;;;;;5115048;28;20039;-73
2022/03/25 09:27:57;;;;;;;34.15;18.45;;;10.50;99.90;;;;;;5114852;28;20395;-74
2022/03/25 09:30:23;;;;;;;29.85;17.27;;;10.60;99.90;;;;;;5097027;28;20036;-74
2022/03/25 09:32:49;;;;;;;33.88;18.73;;;10.70;99.90;;;;;;5096713;28;20122;-74
2022/03/25 09:35:16;;;;;;;31.50;18.70;;;10.80;99.90;;;;;;5114450;28;20048;-74
2022/03/25 09:37:47;;;;;;;31.65;18.20;;;10.90;99.90;;;;;;5096721;28;20051;-73
2022/03/25 09:40:31;;;;;;;27.75;17.60;;;11.00;99.90;;;;;;5114969;28;20051;-74
2022/03/25 09:42:57;;;;;;;26.70;17.85;;;11.20;99.90;;;;;;5115140;28;20368;-73
2022/03/25 09:45:25;;;;;;;37.75;20.00;;;11.30;99.90;;;;;;5096523;28;20059;-73
2022/03/25 09:47:51;;;;;;;31.90;17.58;;;11.40;99.90;;;;;;5114311;28;20043;-73
2022/03/25 09:50:21;;;;;;;27.05;18.83;;;11.50;99.90;;;;;;5096337;28;20135;-74
2022/03/25 09:52:48;;;;;;;30.13;17.65;;;11.60;99.90;;;;;;5096353;28;20035;-73
2022/03/25 09:55:14;;;;;;;29.45;20.33;;;11.70;99.90;;;;;;5114113;28;20495;-73
2022/03/25 09:57:41;;;;;;;36.85;20.77;;;11.80;99.90;;;;;;5096435;28;20051;-73
2022/03/25 10:00:08;;;;;;;32.42;20.67;;;11.80;99.90;;;;;;5096070;28;20039;-74
2022/03/25 10:02:34;;;;;;;36.80;19.42;;;11.90;99.90;;;;;;5095867;28;20040;-73
2022/03/25 10:05:00;;;;;;;30.95;18.70;;;12.00;99.90;;;;;;5114440;28;20131;-73
2022/03/25 10:07:27;;;;;;;33.53;21.20;;;12.00;99.90;;;;;;5096072;28;20051;-73
2022/03/25 10:10:13;;;;;;;33.45;21.00;;;12.10;99.90;;;;;;5113989;28;20498;-73
2022/03/25 10:12:42;;;;;;;34.72;21.73;;;12.30;99.80;;;;;;5096383;28;20099;-73
2022/03/25 10:15:15;;;;;;;33.70;20.45;;;12.30;99.80;;;;;;5114020;28;20091;-73
2022/03/25 10:17:47;;;;;;;36.08;20.35;;;12.40;99.40;;;;;;5113696;28;20414;-72
2022/03/25 10:20:14;;;;;;;32.35;20.05;;;12.60;98.70;;;;;;5088238;28;20112;-73
2022/03/25 10:23:02;;;;;;;33.22;20.65;;;12.60;96.60;;;;;;5092608;28;20487;-74
2022/03/25 10:25:44;;;;;;;32.05;20.73;;;12.70;96.10;;;;;;5065111;28;20437;-75
2022/03/25 10:28:28;;;;;;;34.92;21.45;;;12.80;95.70;;;;;;5075210;28;20040;-75
2022/03/25 10:31:07;;;;;;;33.25;21.40;;;12.90;98.40;;;;;;5090838;28;20043;-75
2022/03/25 10:33:34;;;;;;;35.63;21.98;;;13.10;96.80;;;;;;5097684;28;20047;-74
2022/03/25 10:36:11;;;;;;;32.28;21.02;;;13.20;96.60;;;;;;5078589;28;20089;-75
2022/03/25 10:38:44;;;;;;;28.92;19.77;;;13.40;96.00;;;;;;5074874;28;20071;-75
2022/03/25 10:41:14;;;;;;;28.60;16.70;;;13.50;95.00;;;;;;5075538;28;20044;-74
2022/03/25 10:44:08;;;;;;;30.02;19.40;;;13.60;91.70;;;;;;5094121;28;20438;-75
2022/03/25 10:46:39;;;;;;;30.27;20.13;;;13.60;91.20;;;;;;5082864;28;21179;-75
2022/03/25 10:49:11;;;;;;;31.38;19.25;;;13.60;92.60;;;;;;5075160;28;20052;-75
2022/03/25 10:51:39;;;;;;;30.33;20.35;;;13.70;92.30;;;;;;5074179;28;20055;-75
2022/03/25 10:54:11;;;;;;;28.83;18.83;;;13.80;90.90;;;;;;5075756;28;20044;-75
2022/03/25 10:56:44;;;;;;;32.05;20.05;;;13.90;89.30;;;;;;5074158;28;20044;-75
2022/03/25 10:59:23;;;;;;;30.77;17.70;;;14.00;87.40;;;;;;5056910;28;20047;-74
2022/03/25 11:01:53;;;;;;;25.10;17.77;;;14.10;87.70;;;;;;5065433;28;20041;-75
2022/03/25 11:04:20;;;;;;;31.52;17.35;;;14.20;82.40;;;;;;5091109;28;20127;-75
2022/03/25 11:06:47;;;;;;;28.85;17.83;;;14.20;83.40;;;;;;5092744;28;20040;-74
2022/03/25 11:09:14;;;;;;;28.13;16.50;;;14.40;85.10;;;;;;5093151;28;20063;-74
2022/03/25 11:11:45;;;;;;;29.35;17.77;;;14.50;82.20;;;;;;5072907;28;20486;-73
2022/03/25 11:14:12;;;;;;;31.13;18.30;;;14.50;80.30;;;;;;5088013;28;20055;-73
2022/03/25 11:16:41;;;;;;;26.08;15.93;;;14.50;79.70;;;;;;5074103;28;20552;-73
2022/03/25 11:19:09;;;;;;;29.67;16.60;;;14.70;81.00;;;;;;5090482;28;20093;-73
2022/03/25 11:21:41;;;;;;;27.58;14.43;;;14.70;80.40;;;;;;5059907;28;20048;-74
2022/03/25 11:24:20;;;;;;;29.42;17.67;;;14.70;74.50;;;;;;5075499;28;20050;-74
2022/03/25 11:26:49;;;;;;;29.85;17.33;;;14.70;76.80;;;;;;5074249;28;20101;-74
2022/03/25 11:29:18;;;;;;;25.67;17.55;;;14.70;76.30;;;;;;5092212;28;20048;-73
2022/03/25 11:32:06;;;;;;;24.27;15.02;;;14.80;80.20;;;;;;5092859;28;20090;-75
2022/03/25 11:34:33;;;;;;;30.58;17.88;;;14.90;76.30;;;;;;5052547;28;20114;-74
2022/03/25 11:37:21;;;;;;;32.63;17.58;;;14.90;74.70;;;;;;5058740;28;20067;-74
2022/03/25 11:39:48;;;;;;;32.25;16.80;;;15.00;75.30;;;;;;5086032;28;20047;-74
2022/03/25 11:42:40;;;;;;;28.83;18.05;;;15.00;70.90;;;;;;5078422;28;20051;-74
2022/03/25 11:45:25;;;;;;;25.02;15.50;;;15.00;72.00;;;;;;5064688;28;20048;-73
2022/03/25 11:47:59;;;;;;;28.95;16.83;;;14.90;73.80;;;;;;5075305;28;20106;-73
2022/03/25 11:50:37;;;;;;;28.15;16.35;;;15.00;72.10;;;;;;5065705;28;20064;-74
2022/03/25 11:53:11;;;;;;;28.42;18.83;;;15.10;69.10;;;;;;5088695;28;20113;-74
2022/03/25 11:55:59;;;;;;;29.13;18.33;;;15.00;68.90;;;;;;5094611;28;20486;-73
2022/03/25 11:58:26;;;;;;;30.38;16.73;;;15.00;70.70;;;;;;5095581;28;20051;-73
2022/03/25 12:01:20;;;;;;;28.45;17.15;;;15.10;70.00;;;;;;5095224;28;20162;-73
2022/03/25 12:03:54;;;;;;;28.17;17.70;;;15.20;67.60;;;;;;5084228;28;20560;-73
2022/03/25 12:06:25;;;;;;;30.30;17.35;;;15.20;69.40;;;;;;5078307;28;20048;-74
2022/03/25 12:09:13;;;;;;;35.05;16.17;;;15.30;65.40;;;;;;5095465;28;20124;-73
2022/03/25 12:11:58;;;;;;;29.27;19.17;;;15.30;65.80;;;;;;5095854;28;20067;-73
2022/03/25 12:14:31;;;;;;;33.25;20.60;;;15.30;66.00;;;;;;5094742;28;20084;-73
2022/03/25 12:17:12;;;;;;;29.60;18.80;;;15.30;67.20;;;;;;5095344;28;20040;-74
2022/03/25 12:19:45;;;;;;;35.88;20.73;;;15.50;65.70;;;;;;5094574;28;20065;-74
2022/03/25 12:22:20;;;;;;;35.25;19.08;;;15.40;66.40;;;;;;5095328;28;20105;-73
2022/03/25 12:24:51;;;;;;;34.22;19.67;;;15.50;64.90;;;;;;5096268;28;20106;-74
2022/03/25 12:27:17;;;;;;;34.92;19.33;;;15.50;66.20;;;;;;5095553;28;20043;-73
2022/03/25 12:29:53;;;;;;;30.48;18.67;;;15.50;64.50;;;;;;5095426;28;20051;-73
2022/03/25 12:32:22;;;;;;;34.15;18.73;;;15.60;66.20;;;;;;5077513;28;20101;-73
2022/03/25 12:35:02;;;;;;;28.08;17.77;;;15.60;64.30;;;;;;5095631;28;20048;-74
2022/03/25 12:37:28;;;;;;;31.20;17.80;;;15.60;63.60;;;;;;5076688;28;20115;-74
2022/03/25 12:39:54;;;;;;;30.63;16.52;;;15.60;63.70;;;;;;5095632;28;20131;-73
2022/03/25 12:42:20;;;;;;;28.08;17.15;;;15.60;62.60;;;;;;5093879;28;20044;-73